sensor_id;sensor_type;location;lat;lon;timestamp;P1;durP1;ratioP1;P2;durP2;ratioP2
43817;SDS011;29868;47.360;18.984;2022-08-21T00:01:16;3.35;;;2.83;;
43817;SDS011;29868;47.360;18.984;2022-08-21T00:03:43;4.97;;;2.90;;
43817;SDS011;29868;47.360;18.984;2022-08-21T00:06:09;3.67;;;2.60;;
43817;SDS011;29868;47.360;18.984;2022-08-21T00:08:35;3.72;;;2.85;;
43817;SDS011;29868;47.360;18.984;2022-08-21T00:11:00;4.10;;;2.72;;
43817;SDS011;29868;47.360;18.984;2022-08-21T00:13:27;4.40;;;2.80;;
43817;SDS011;29868;47.360;18.984;2022-08-21T00:15:52;3.70;;;2.70;;
43817;SDS011;29868;47.360;18.984;2022-08-21T00:18:18;4.32;;;3.03;;
43817;SDS011;29868;47.360;18.984;2022-08-21T00:20:44;5.00;;;2.95;;
43817;SDS011;29868;47.360;18.984;2022-08-21T00:23:11;5.60;;;3.15;;
43817;SDS011;29868;47.360;18.984;2022-08-21T00:25:38;4.25;;;3.15;;
43817;SDS011;29868;47.360;18.984;2022-08-21T00:28:04;4.28;;;3.03;;
43817;SDS011;29868;47.360;18.984;2022-08-21T00:30:31;4.80;;;3.42;;
43817;SDS011;29868;47.360;18.984;2022-08-21T00:32:58;5.30;;;3.30;;
43817;SDS011;29868;47.360;18.984;2022-08-21T00:35:26;4.88;;;3.60;;
43817;SDS011;29868;47.360;18.984;2022-08-21T00:37:54;5.35;;;3.60;;
43817;SDS011;29868;47.360;18.984;2022-08-21T00:40:22;5.30;;;3.67;;
43817;SDS011;29868;47.360;18.984;2022-08-21T00:42:50;4.90;;;3.17;;
43817;SDS011;29868;47.360;18.984;2022-08-21T00:45:16;5.53;;;3.75;;
43817;SDS011;29868;47.360;18.984;2022-08-21T00:47:41;4.68;;;3.58;;
43817;SDS011;29868;47.360;18.984;2022-08-21T00:50:08;5.82;;;3.70;;
43817;SDS011;29868;47.360;18.984;2022-08-21T00:52:35;4.95;;;3.30;;
43817;SDS011;29868;47.360;18.984;2022-08-21T00:55:02;5.75;;;3.78;;
43817;SDS011;29868;47.360;18.984;2022-08-21T00:57:32;4.65;;;3.30;;
43817;SDS011;29868;47.360;18.984;2022-08-21T01:00:03;5.15;;;3.72;;
43817;SDS011;29868;47.360;18.984;2022-08-21T01:02:32;5.55;;;3.30;;
43817;SDS011;29868;47.360;18.984;2022-08-21T01:04:58;5.25;;;3.85;;
43817;SDS011;29868;47.360;18.984;2022-08-21T01:07:23;6.95;;;3.90;;
43817;SDS011;29868;47.360;18.984;2022-08-21T01:09:50;6.80;;;3.50;;
43817;SDS011;29868;47.360;18.984;2022-08-21T01:12:16;5.32;;;3.40;;
43817;SDS011;29868;47.360;18.984;2022-08-21T01:14:42;5.50;;;3.65;;
43817;SDS011;29868;47.360;18.984;2022-08-21T01:17:10;5.15;;;3.17;;
43817;SDS011;29868;47.360;18.984;2022-08-21T01:19:38;4.80;;;3.40;;
43817;SDS011;29868;47.360;18.984;2022-08-21T01:22:04;5.32;;;3.50;;
43817;SDS011;29868;47.360;18.984;2022-08-21T01:24:30;5.80;;;3.80;;
43817;SDS011;29868;47.360;18.984;2022-08-21T01:26:56;7.57;;;4.07;;
43817;SDS011;29868;47.360;18.984;2022-08-21T01:31:53;5.07;;;3.40;;
43817;SDS011;29868;47.360;18.984;2022-08-21T01:34:19;4.80;;;3.45;;
43817;SDS011;29868;47.360;18.984;2022-08-21T01:36:45;5.97;;;4.00;;
43817;SDS011;29868;47.360;18.984;2022-08-21T01:39:11;5.95;;;4.10;;
43817;SDS011;29868;47.360;18.984;2022-08-21T01:41:37;6.82;;;3.90;;
43817;SDS011;29868;47.360;18.984;2022-08-21T01:44:03;4.97;;;3.75;;
43817;SDS011;29868;47.360;18.984;2022-08-21T01:46:28;5.68;;;3.65;;
43817;SDS011;29868;47.360;18.984;2022-08-21T01:48:54;5.60;;;4.13;;
43817;SDS011;29868;47.360;18.984;2022-08-21T01:51:20;8.25;;;4.70;;
43817;SDS011;29868;47.360;18.984;2022-08-21T01:53:45;5.80;;;4.15;;
43817;SDS011;29868;47.360;18.984;2022-08-21T01:56:11;6.72;;;4.70;;
43817;SDS011;29868;47.360;18.984;2022-08-21T01:58:40;7.97;;;5.47;;
43817;SDS011;29868;47.360;18.984;2022-08-21T02:01:07;6.28;;;4.78;;
43817;SDS011;29868;47.360;18.984;2022-08-21T02:03:34;8.63;;;5.25;;
43817;SDS011;29868;47.360;18.984;2022-08-21T02:06:00;7.72;;;5.55;;
43817;SDS011;29868;47.360;18.984;2022-08-21T02:08:27;8.38;;;5.28;;
43817;SDS011;29868;47.360;18.984;2022-08-21T02:10:53;8.27;;;5.60;;
43817;SDS011;29868;47.360;18.984;2022-08-21T02:13:18;7.60;;;5.20;;
43817;SDS011;29868;47.360;18.984;2022-08-21T02:15:44;8.20;;;5.50;;
43817;SDS011;29868;47.360;18.984;2022-08-21T02:18:09;7.35;;;5.57;;
43817;SDS011;29868;47.360;18.984;2022-08-21T02:20:37;8.20;;;5.32;;
43817;SDS011;29868;47.360;18.984;2022-08-21T02:23:07;8.43;;;5.10;;
43817;SDS011;29868;47.360;18.984;2022-08-21T02:25:34;8.07;;;5.65;;
43817;SDS011;29868;47.360;18.984;2022-08-21T02:28:02;10.15;;;5.60;;
43817;SDS011;29868;47.360;18.984;2022-08-21T02:30:33;8.43;;;5.30;;
43817;SDS011;29868;47.360;18.984;2022-08-21T02:33:03;8.23;;;5.82;;
43817;SDS011;29868;47.360;18.984;2022-08-21T02:35:28;9.52;;;5.13;;
43817;SDS011;29868;47.360;18.984;2022-08-21T02:37:56;9.27;;;5.28;;
43817;SDS011;29868;47.360;18.984;2022-08-21T02:40:25;8.35;;;5.55;;
43817;SDS011;29868;47.360;18.984;2022-08-21T02:42:52;8.88;;;5.63;;
43817;SDS011;29868;47.360;18.984;2022-08-21T02:45:18;10.35;;;5.32;;
43817;SDS011;29868;47.360;18.984;2022-08-21T02:47:52;8.52;;;5.70;;
43817;SDS011;29868;47.360;18.984;2022-08-21T02:50:20;9.82;;;5.32;;
43817;SDS011;29868;47.360;18.984;2022-08-21T02:52:48;8.93;;;5.45;;
43817;SDS011;29868;47.360;18.984;2022-08-21T02:55:14;7.28;;;5.35;;
43817;SDS011;29868;47.360;18.984;2022-08-21T02:57:39;7.80;;;5.13;;
43817;SDS011;29868;47.360;18.984;2022-08-21T03:00:05;7.22;;;5.22;;
43817;SDS011;29868;47.360;18.984;2022-08-21T03:02:32;10.75;;;5.75;;
43817;SDS011;29868;47.360;18.984;2022-08-21T03:04:57;10.10;;;6.15;;
43817;SDS011;29868;47.360;18.984;2022-08-21T03:07:23;8.73;;;5.72;;
43817;SDS011;29868;47.360;18.984;2022-08-21T03:09:51;7.90;;;5.57;;
43817;SDS011;29868;47.360;18.984;2022-08-21T03:12:16;8.25;;;5.43;;
43817;SDS011;29868;47.360;18.984;2022-08-21T03:14:42;8.45;;;5.40;;
43817;SDS011;29868;47.360;18.984;2022-08-21T03:17:07;9.27;;;5.95;;
43817;SDS011;29868;47.360;18.984;2022-08-21T03:19:32;8.23;;;5.28;;
43817;SDS011;29868;47.360;18.984;2022-08-21T03:21:58;8.30;;;5.35;;
43817;SDS011;29868;47.360;18.984;2022-08-21T03:24:23;10.43;;;6.07;;
43817;SDS011;29868;47.360;18.984;2022-08-21T03:26:49;9.18;;;5.75;;
43817;SDS011;29868;47.360;18.984;2022-08-21T03:29:14;8.13;;;5.82;;
43817;SDS011;29868;47.360;18.984;2022-08-21T03:31:40;9.30;;;6.05;;
43817;SDS011;29868;47.360;18.984;2022-08-21T03:34:05;10.15;;;6.15;;
43817;SDS011;29868;47.360;18.984;2022-08-21T03:36:30;9.20;;;6.15;;
43817;SDS011;29868;47.360;18.984;2022-08-21T03:38:56;11.50;;;6.50;;
43817;SDS011;29868;47.360;18.984;2022-08-21T03:41:21;11.07;;;6.60;;
43817;SDS011;29868;47.360;18.984;2022-08-21T03:43:47;10.38;;;6.65;;
43817;SDS011;29868;47.360;18.984;2022-08-21T03:46:12;9.45;;;6.38;;
43817;SDS011;29868;47.360;18.984;2022-08-21T03:48:38;10.40;;;6.60;;
43817;SDS011;29868;47.360;18.984;2022-08-21T03:51:04;11.18;;;6.90;;
43817;SDS011;29868;47.360;18.984;2022-08-21T03:53:31;11.60;;;7.80;;
43817;SDS011;29868;47.360;18.984;2022-08-21T03:55:57;11.60;;;6.93;;
43817;SDS011;29868;47.360;18.984;2022-08-21T03:58:24;11.48;;;6.95;;
43817;SDS011;29868;47.360;18.984;2022-08-21T04:00:52;11.07;;;7.10;;
43817;SDS011;29868;47.360;18.984;2022-08-21T04:03:19;12.70;;;7.32;;
43817;SDS011;29868;47.360;18.984;2022-08-21T04:05:45;11.40;;;7.30;;
43817;SDS011;29868;47.360;18.984;2022-08-21T04:08:11;11.00;;;7.13;;
43817;SDS011;29868;47.360;18.984;2022-08-21T04:10:38;13.50;;;7.97;;
43817;SDS011;29868;47.360;18.984;2022-08-21T04:13:06;12.23;;;7.30;;
43817;SDS011;29868;47.360;18.984;2022-08-21T04:15:32;11.93;;;7.50;;
43817;SDS011;29868;47.360;18.984;2022-08-21T04:17:58;11.95;;;7.28;;
43817;SDS011;29868;47.360;18.984;2022-08-21T04:20:26;12.57;;;7.93;;
43817;SDS011;29868;47.360;18.984;2022-08-21T04:22:52;11.95;;;7.55;;
43817;SDS011;29868;47.360;18.984;2022-08-21T04:25:19;11.40;;;7.47;;
43817;SDS011;29868;47.360;18.984;2022-08-21T04:27:46;12.27;;;7.90;;
43817;SDS011;29868;47.360;18.984;2022-08-21T04:30:12;12.38;;;8.25;;
43817;SDS011;29868;47.360;18.984;2022-08-21T04:32:41;13.48;;;8.13;;
43817;SDS011;29868;47.360;18.984;2022-08-21T04:35:11;13.10;;;7.97;;
43817;SDS011;29868;47.360;18.984;2022-08-21T04:37:39;13.05;;;7.75;;
43817;SDS011;29868;47.360;18.984;2022-08-21T04:40:05;12.35;;;7.63;;
43817;SDS011;29868;47.360;18.984;2022-08-21T04:42:31;12.15;;;7.93;;
43817;SDS011;29868;47.360;18.984;2022-08-21T04:44:57;13.07;;;8.70;;
43817;SDS011;29868;47.360;18.984;2022-08-21T04:47:23;11.50;;;7.50;;
43817;SDS011;29868;47.360;18.984;2022-08-21T04:49:49;10.98;;;7.32;;
43817;SDS011;29868;47.360;18.984;2022-08-21T04:52:16;10.65;;;7.43;;
43817;SDS011;29868;47.360;18.984;2022-08-21T04:54:45;11.57;;;7.65;;
43817;SDS011;29868;47.360;18.984;2022-08-21T04:57:12;10.93;;;6.88;;
43817;SDS011;29868;47.360;18.984;2022-08-21T04:59:42;11.23;;;7.20;;
43817;SDS011;29868;47.360;18.984;2022-08-21T05:02:10;10.23;;;7.20;;
43817;SDS011;29868;47.360;18.984;2022-08-21T05:04:39;10.45;;;6.65;;
43817;SDS011;29868;47.360;18.984;2022-08-21T05:07:12;9.90;;;6.47;;
43817;SDS011;29868;47.360;18.984;2022-08-21T05:09:42;10.73;;;6.95;;
43817;SDS011;29868;47.360;18.984;2022-08-21T05:12:08;8.85;;;6.80;;
43817;SDS011;29868;47.360;18.984;2022-08-21T05:14:34;10.27;;;6.28;;
43817;SDS011;29868;47.360;18.984;2022-08-21T05:17:00;9.40;;;5.93;;
43817;SDS011;29868;47.360;18.984;2022-08-21T05:19:25;8.10;;;5.75;;
43817;SDS011;29868;47.360;18.984;2022-08-21T05:21:50;9.93;;;5.70;;
43817;SDS011;29868;47.360;18.984;2022-08-21T05:24:16;8.50;;;5.55;;
43817;SDS011;29868;47.360;18.984;2022-08-21T05:26:42;8.65;;;5.45;;
43817;SDS011;29868;47.360;18.984;2022-08-21T05:29:08;7.50;;;5.28;;
43817;SDS011;29868;47.360;18.984;2022-08-21T05:31:33;7.35;;;5.20;;
43817;SDS011;29868;47.360;18.984;2022-08-21T05:33:59;8.10;;;5.50;;
43817;SDS011;29868;47.360;18.984;2022-08-21T05:36:24;7.22;;;5.10;;
43817;SDS011;29868;47.360;18.984;2022-08-21T05:38:50;7.35;;;4.65;;
43817;SDS011;29868;47.360;18.984;2022-08-21T05:41:15;7.10;;;4.82;;
43817;SDS011;29868;47.360;18.984;2022-08-21T05:43:41;6.43;;;4.53;;
43817;SDS011;29868;47.360;18.984;2022-08-21T05:46:07;7.50;;;4.70;;
43817;SDS011;29868;47.360;18.984;2022-08-21T05:48:32;6.35;;;4.90;;
43817;SDS011;29868;47.360;18.984;2022-08-21T05:51:03;7.78;;;4.95;;
43817;SDS011;29868;47.360;18.984;2022-08-21T05:53:31;6.95;;;4.60;;
43817;SDS011;29868;47.360;18.984;2022-08-21T05:55:56;6.65;;;4.38;;
43817;SDS011;29868;47.360;18.984;2022-08-21T05:58:22;6.60;;;4.78;;
43817;SDS011;29868;47.360;18.984;2022-08-21T06:00:48;5.80;;;4.30;;
43817;SDS011;29868;47.360;18.984;2022-08-21T06:03:25;6.45;;;4.30;;
43817;SDS011;29868;47.360;18.984;2022-08-21T06:05:53;7.07;;;4.20;;
43817;SDS011;29868;47.360;18.984;2022-08-21T06:08:19;6.88;;;4.32;;
43817;SDS011;29868;47.360;18.984;2022-08-21T06:10:46;5.43;;;4.03;;
43817;SDS011;29868;47.360;18.984;2022-08-21T06:13:13;6.97;;;4.00;;
43817;SDS011;29868;47.360;18.984;2022-08-21T06:15:39;6.20;;;4.22;;
43817;SDS011;29868;47.360;18.984;2022-08-21T06:18:04;6.68;;;4.22;;
43817;SDS011;29868;47.360;18.984;2022-08-21T06:20:30;5.75;;;3.90;;
43817;SDS011;29868;47.360;18.984;2022-08-21T06:22:56;6.07;;;3.58;;
43817;SDS011;29868;47.360;18.984;2022-08-21T06:25:22;6.70;;;3.60;;
43817;SDS011;29868;47.360;18.984;2022-08-21T06:27:47;6.03;;;3.85;;
43817;SDS011;29868;47.360;18.984;2022-08-21T06:30:13;7.03;;;3.50;;
43817;SDS011;29868;47.360;18.984;2022-08-21T06:32:39;5.68;;;4.00;;
43817;SDS011;29868;47.360;18.984;2022-08-21T06:35:04;5.93;;;3.83;;
43817;SDS011;29868;47.360;18.984;2022-08-21T06:37:30;5.03;;;3.83;;
43817;SDS011;29868;47.360;18.984;2022-08-21T06:39:56;6.13;;;4.13;;
43817;SDS011;29868;47.360;18.984;2022-08-21T06:42:21;5.43;;;3.60;;
43817;SDS011;29868;47.360;18.984;2022-08-21T06:44:47;6.75;;;4.43;;
43817;SDS011;29868;47.360;18.984;2022-08-21T06:47:12;6.72;;;4.35;;
43817;SDS011;29868;47.360;18.984;2022-08-21T06:49:38;5.88;;;3.88;;
43817;SDS011;29868;47.360;18.984;2022-08-21T06:52:07;6.70;;;4.07;;
43817;SDS011;29868;47.360;18.984;2022-08-21T06:54:34;6.13;;;4.05;;
43817;SDS011;29868;47.360;18.984;2022-08-21T06:56:59;5.07;;;3.47;;
43817;SDS011;29868;47.360;18.984;2022-08-21T06:59:24;6.50;;;3.90;;
43817;SDS011;29868;47.360;18.984;2022-08-21T07:01:50;6.53;;;3.50;;
43817;SDS011;29868;47.360;18.984;2022-08-21T07:04:15;5.32;;;3.70;;
43817;SDS011;29868;47.360;18.984;2022-08-21T07:06:41;5.30;;;3.70;;
43817;SDS011;29868;47.360;18.984;2022-08-21T07:09:06;5.75;;;3.80;;
43817;SDS011;29868;47.360;18.984;2022-08-21T07:11:32;5.75;;;3.92;;
43817;SDS011;29868;47.360;18.984;2022-08-21T07:13:57;6.88;;;3.92;;
43817;SDS011;29868;47.360;18.984;2022-08-21T07:16:23;5.25;;;3.50;;
43817;SDS011;29868;47.360;18.984;2022-08-21T07:18:49;5.60;;;3.63;;
43817;SDS011;29868;47.360;18.984;2022-08-21T07:21:15;5.68;;;3.70;;
43817;SDS011;29868;47.360;18.984;2022-08-21T07:23:42;6.80;;;3.88;;
43817;SDS011;29868;47.360;18.984;2022-08-21T07:26:13;6.25;;;4.00;;
43817;SDS011;29868;47.360;18.984;2022-08-21T07:28:40;4.93;;;3.88;;
43817;SDS011;29868;47.360;18.984;2022-08-21T07:31:06;6.20;;;3.47;;
43817;SDS011;29868;47.360;18.984;2022-08-21T07:33:33;6.47;;;3.92;;
43817;SDS011;29868;47.360;18.984;2022-08-21T07:35:59;6.03;;;3.95;;
43817;SDS011;29868;47.360;18.984;2022-08-21T07:38:24;4.95;;;3.60;;
43817;SDS011;29868;47.360;18.984;2022-08-21T07:40:51;4.82;;;3.65;;
43817;SDS011;29868;47.360;18.984;2022-08-21T07:43:19;6.78;;;3.83;;
43817;SDS011;29868;47.360;18.984;2022-08-21T07:45:44;5.95;;;3.65;;
43817;SDS011;29868;47.360;18.984;2022-08-21T07:48:10;5.88;;;4.15;;
43817;SDS011;29868;47.360;18.984;2022-08-21T07:50:36;8.45;;;4.65;;
43817;SDS011;29868;47.360;18.984;2022-08-21T07:53:02;5.60;;;3.90;;
43817;SDS011;29868;47.360;18.984;2022-08-21T07:55:27;7.70;;;4.10;;
43817;SDS011;29868;47.360;18.984;2022-08-21T07:57:53;5.78;;;3.88;;
43817;SDS011;29868;47.360;18.984;2022-08-21T08:00:19;6.00;;;3.97;;
43817;SDS011;29868;47.360;18.984;2022-08-21T08:02:48;6.07;;;4.00;;
43817;SDS011;29868;47.360;18.984;2022-08-21T08:05:16;6.82;;;4.20;;
43817;SDS011;29868;47.360;18.984;2022-08-21T08:07:44;6.00;;;3.90;;
43817;SDS011;29868;47.360;18.984;2022-08-21T08:10:10;6.55;;;4.32;;
43817;SDS011;29868;47.360;18.984;2022-08-21T08:12:36;5.28;;;3.42;;
43817;SDS011;29868;47.360;18.984;2022-08-21T08:15:03;5.72;;;4.00;;
43817;SDS011;29868;47.360;18.984;2022-08-21T08:17:30;6.18;;;4.30;;
43817;SDS011;29868;47.360;18.984;2022-08-21T08:19:57;6.30;;;3.95;;
43817;SDS011;29868;47.360;18.984;2022-08-21T08:22:22;5.22;;;3.83;;
43817;SDS011;29868;47.360;18.984;2022-08-21T08:24:49;6.55;;;4.15;;
43817;SDS011;29868;47.360;18.984;2022-08-21T08:27:16;5.57;;;3.95;;
43817;SDS011;29868;47.360;18.984;2022-08-21T08:29:41;5.47;;;4.00;;
43817;SDS011;29868;47.360;18.984;2022-08-21T08:32:07;5.43;;;4.30;;
43817;SDS011;29868;47.360;18.984;2022-08-21T08:34:33;6.38;;;4.20;;
43817;SDS011;29868;47.360;18.984;2022-08-21T08:37:00;6.80;;;4.75;;
43817;SDS011;29868;47.360;18.984;2022-08-21T08:39:25;9.80;;;5.25;;
43817;SDS011;29868;47.360;18.984;2022-08-21T08:41:55;5.45;;;3.97;;
43817;SDS011;29868;47.360;18.984;2022-08-21T08:44:28;7.30;;;4.93;;
43817;SDS011;29868;47.360;18.984;2022-08-21T08:46:54;8.07;;;4.50;;
43817;SDS011;29868;47.360;18.984;2022-08-21T08:49:36;5.68;;;4.20;;
43817;SDS011;29868;47.360;18.984;2022-08-21T08:52:27;7.70;;;4.20;;
43817;SDS011;29868;47.360;18.984;2022-08-21T08:55:09;6.22;;;4.68;;
43817;SDS011;29868;47.360;18.984;2022-08-21T08:57:42;7.05;;;4.72;;
43817;SDS011;29868;47.360;18.984;2022-08-21T09:00:11;6.57;;;4.63;;
43817;SDS011;29868;47.360;18.984;2022-08-21T09:02:39;5.88;;;4.25;;
43817;SDS011;29868;47.360;18.984;2022-08-21T09:05:06;7.78;;;5.05;;
43817;SDS011;29868;47.360;18.984;2022-08-21T09:07:49;7.45;;;4.57;;
43817;SDS011;29868;47.360;18.984;2022-08-21T09:15:58;6.57;;;4.53;;
43817;SDS011;29868;47.360;18.984;2022-08-21T09:24:06;5.55;;;4.05;;
43817;SDS011;29868;47.360;18.984;2022-08-21T09:29:25;5.30;;;4.30;;
43817;SDS011;29868;47.360;18.984;2022-08-21T09:31:54;7.15;;;4.68;;
43817;SDS011;29868;47.360;18.984;2022-08-21T09:34:27;6.70;;;4.90;;
43817;SDS011;29868;47.360;18.984;2022-08-21T09:36:54;6.78;;;4.97;;
43817;SDS011;29868;47.360;18.984;2022-08-21T09:42:00;7.10;;;5.13;;
43817;SDS011;29868;47.360;18.984;2022-08-21T09:44:34;7.32;;;4.60;;
43817;SDS011;29868;47.360;18.984;2022-08-21T09:47:08;6.97;;;5.00;;
43817;SDS011;29868;47.360;18.984;2022-08-21T09:49:38;6.45;;;4.65;;
43817;SDS011;29868;47.360;18.984;2022-08-21T09:52:15;9.48;;;5.20;;
43817;SDS011;29868;47.360;18.984;2022-08-21T09:54:44;8.10;;;5.13;;
43817;SDS011;29868;47.360;18.984;2022-08-21T09:57:17;8.32;;;4.88;;
43817;SDS011;29868;47.360;18.984;2022-08-21T10:00:30;8.00;;;5.03;;
43817;SDS011;29868;47.360;18.984;2022-08-21T10:03:19;7.15;;;5.07;;
43817;SDS011;29868;47.360;18.984;2022-08-21T10:08:31;5.85;;;4.68;;
43817;SDS011;29868;47.360;18.984;2022-08-21T10:11:02;6.22;;;4.80;;
43817;SDS011;29868;47.360;18.984;2022-08-21T10:19:15;9.05;;;5.32;;
43817;SDS011;29868;47.360;18.984;2022-08-21T10:21:54;6.07;;;4.65;;
43817;SDS011;29868;47.360;18.984;2022-08-21T10:28:01;6.72;;;4.57;;
43817;SDS011;29868;47.360;18.984;2022-08-21T10:30:38;6.82;;;4.63;;
43817;SDS011;29868;47.360;18.984;2022-08-21T10:33:25;6.28;;;4.65;;
43817;SDS011;29868;47.360;18.984;2022-08-21T10:36:21;6.07;;;4.82;;
43817;SDS011;29868;47.360;18.984;2022-08-21T10:39:03;6.50;;;4.85;;
43817;SDS011;29868;47.360;18.984;2022-08-21T10:52:14;7.90;;;4.82;;
43817;SDS011;29868;47.360;18.984;2022-08-21T10:55:17;8.80;;;5.00;;
43817;SDS011;29868;47.360;18.984;2022-08-21T10:57:47;6.55;;;5.10;;
43817;SDS011;29868;47.360;18.984;2022-08-21T11:00:19;6.50;;;5.07;;
43817;SDS011;29868;47.360;18.984;2022-08-21T11:05:18;6.07;;;4.68;;
43817;SDS011;29868;47.360;18.984;2022-08-21T11:08:02;7.57;;;5.10;;
43817;SDS011;29868;47.360;18.984;2022-08-21T11:10:40;8.32;;;4.72;;
43817;SDS011;29868;47.360;18.984;2022-08-21T11:13:15;5.97;;;4.90;;
43817;SDS011;29868;47.360;18.984;2022-08-21T11:15:49;7.05;;;5.00;;
43817;SDS011;29868;47.360;18.984;2022-08-21T11:24:23;7.07;;;5.07;;
43817;SDS011;29868;47.360;18.984;2022-08-21T11:29:37;7.05;;;4.88;;
43817;SDS011;29868;47.360;18.984;2022-08-21T11:35:16;6.82;;;4.85;;
43817;SDS011;29868;47.360;18.984;2022-08-21T11:38:02;6.80;;;4.78;;
43817;SDS011;29868;47.360;18.984;2022-08-21T11:43:40;8.18;;;5.20;;
43817;SDS011;29868;47.360;18.984;2022-08-21T11:49:16;7.47;;;5.32;;
43817;SDS011;29868;47.360;18.984;2022-08-21T12:00:00;7.22;;;5.68;;
43817;SDS011;29868;47.360;18.984;2022-08-21T12:02:34;8.98;;;5.97;;
43817;SDS011;29868;47.360;18.984;2022-08-21T12:05:22;10.98;;;5.97;;
43817;SDS011;29868;47.360;18.984;2022-08-21T12:07:59;9.77;;;6.10;;
43817;SDS011;29868;47.360;18.984;2022-08-21T12:10:37;10.15;;;6.43;;
43817;SDS011;29868;47.360;18.984;2022-08-21T12:13:25;8.55;;;5.82;;
43817;SDS011;29868;47.360;18.984;2022-08-21T12:15:53;9.70;;;6.65;;
43817;SDS011;29868;47.360;18.984;2022-08-21T12:18:34;10.50;;;7.05;;
43817;SDS011;29868;47.360;18.984;2022-08-21T12:21:04;10.40;;;7.25;;
43817;SDS011;29868;47.360;18.984;2022-08-21T12:26:26;11.20;;;7.47;;
43817;SDS011;29868;47.360;18.984;2022-08-21T12:29:11;11.95;;;7.90;;
43817;SDS011;29868;47.360;18.984;2022-08-21T12:32:04;13.80;;;7.80;;
43817;SDS011;29868;47.360;18.984;2022-08-21T12:34:49;13.50;;;8.60;;
43817;SDS011;29868;47.360;18.984;2022-08-21T12:37:28;11.88;;;8.15;;
43817;SDS011;29868;47.360;18.984;2022-08-21T12:40:03;13.30;;;8.30;;
43817;SDS011;29868;47.360;18.984;2022-08-21T12:42:39;13.32;;;8.68;;
43817;SDS011;29868;47.360;18.984;2022-08-21T12:47:56;13.63;;;8.00;;
43817;SDS011;29868;47.360;18.984;2022-08-21T12:50:35;12.88;;;8.07;;
43817;SDS011;29868;47.360;18.984;2022-08-21T12:56:16;12.52;;;7.63;;
43817;SDS011;29868;47.360;18.984;2022-08-21T12:59:00;14.57;;;8.13;;
43817;SDS011;29868;47.360;18.984;2022-08-21T13:01:31;14.88;;;8.48;;
43817;SDS011;29868;47.360;18.984;2022-08-21T13:04:11;14.18;;;8.30;;
43817;SDS011;29868;47.360;18.984;2022-08-21T13:06:42;12.68;;;8.43;;
43817;SDS011;29868;47.360;18.984;2022-08-21T13:09:12;13.90;;;8.43;;
43817;SDS011;29868;47.360;18.984;2022-08-21T13:11:44;13.25;;;8.70;;
43817;SDS011;29868;47.360;18.984;2022-08-21T13:16:59;13.25;;;8.18;;
43817;SDS011;29868;47.360;18.984;2022-08-21T13:19:28;14.32;;;9.20;;
43817;SDS011;29868;47.360;18.984;2022-08-21T13:21:55;14.10;;;8.63;;
43817;SDS011;29868;47.360;18.984;2022-08-21T13:24:22;13.27;;;8.25;;
43817;SDS011;29868;47.360;18.984;2022-08-21T13:26:59;13.40;;;7.45;;
43817;SDS011;29868;47.360;18.984;2022-08-21T13:29:29;10.43;;;7.07;;
43817;SDS011;29868;47.360;18.984;2022-08-21T13:31:58;11.48;;;6.82;;
43817;SDS011;29868;47.360;18.984;2022-08-21T13:34:29;10.23;;;6.70;;
43817;SDS011;29868;47.360;18.984;2022-08-21T13:36:58;8.55;;;6.43;;
43817;SDS011;29868;47.360;18.984;2022-08-21T13:39:25;8.20;;;5.97;;
43817;SDS011;29868;47.360;18.984;2022-08-21T13:41:52;8.40;;;5.57;;
43817;SDS011;29868;47.360;18.984;2022-08-21T13:46:56;8.43;;;5.57;;
43817;SDS011;29868;47.360;18.984;2022-08-21T13:49:26;6.30;;;4.90;;
43817;SDS011;29868;47.360;18.984;2022-08-21T13:51:56;8.20;;;4.95;;
43817;SDS011;29868;47.360;18.984;2022-08-21T13:54:23;7.78;;;5.05;;
43817;SDS011;29868;47.360;18.984;2022-08-21T13:56:52;6.35;;;5.00;;
43817;SDS011;29868;47.360;18.984;2022-08-21T13:59:25;7.32;;;4.65;;
43817;SDS011;29868;47.360;18.984;2022-08-21T14:01:57;6.80;;;4.65;;
43817;SDS011;29868;47.360;18.984;2022-08-21T14:06:51;8.27;;;5.30;;
43817;SDS011;29868;47.360;18.984;2022-08-21T14:11:48;7.35;;;4.82;;
43817;SDS011;29868;47.360;18.984;2022-08-21T14:16:53;6.22;;;4.70;;
43817;SDS011;29868;47.360;18.984;2022-08-21T14:19:45;7.10;;;4.50;;
43817;SDS011;29868;47.360;18.984;2022-08-21T14:22:27;5.95;;;4.88;;
43817;SDS011;29868;47.360;18.984;2022-08-21T14:25:00;6.95;;;4.88;;
43817;SDS011;29868;47.360;18.984;2022-08-21T14:27:30;5.88;;;4.18;;
43817;SDS011;29868;47.360;18.984;2022-08-21T14:30:04;6.80;;;4.90;;
43817;SDS011;29868;47.360;18.984;2022-08-21T14:32:37;6.97;;;5.10;;
43817;SDS011;29868;47.360;18.984;2022-08-21T14:35:05;6.50;;;5.20;;
43817;SDS011;29868;47.360;18.984;2022-08-21T14:37:31;6.63;;;5.35;;
43817;SDS011;29868;47.360;18.984;2022-08-21T14:39:57;7.68;;;5.07;;
43817;SDS011;29868;47.360;18.984;2022-08-21T14:42:23;7.00;;;5.32;;
43817;SDS011;29868;47.360;18.984;2022-08-21T14:44:48;6.53;;;5.30;;
43817;SDS011;29868;47.360;18.984;2022-08-21T14:47:14;6.80;;;4.47;;
43817;SDS011;29868;47.360;18.984;2022-08-21T14:49:40;6.43;;;4.63;;
43817;SDS011;29868;47.360;18.984;2022-08-21T14:52:05;7.28;;;4.22;;
43817;SDS011;29868;47.360;18.984;2022-08-21T14:54:31;6.43;;;4.20;;
43817;SDS011;29868;47.360;18.984;2022-08-21T14:57:02;6.75;;;4.10;;
43817;SDS011;29868;47.360;18.984;2022-08-21T14:59:31;4.80;;;3.50;;
43817;SDS011;29868;47.360;18.984;2022-08-21T15:01:57;5.15;;;3.55;;
43817;SDS011;29868;47.360;18.984;2022-08-21T15:04:23;4.63;;;3.47;;
43817;SDS011;29868;47.360;18.984;2022-08-21T15:06:48;5.50;;;4.10;;
43817;SDS011;29868;47.360;18.984;2022-08-21T15:09:14;4.65;;;3.60;;
43817;SDS011;29868;47.360;18.984;2022-08-21T15:11:39;4.60;;;3.33;;
43817;SDS011;29868;47.360;18.984;2022-08-21T15:14:06;3.53;;;3.00;;
43817;SDS011;29868;47.360;18.984;2022-08-21T15:16:35;5.57;;;3.20;;
43817;SDS011;29868;47.360;18.984;2022-08-21T15:19:01;4.10;;;2.88;;
43817;SDS011;29868;47.360;18.984;2022-08-21T15:21:26;4.43;;;2.90;;
43817;SDS011;29868;47.360;18.984;2022-08-21T15:23:52;3.78;;;3.00;;
43817;SDS011;29868;47.360;18.984;2022-08-21T15:26:18;3.88;;;3.05;;
43817;SDS011;29868;47.360;18.984;2022-08-21T15:28:45;4.88;;;3.00;;
43817;SDS011;29868;47.360;18.984;2022-08-21T15:31:11;4.20;;;3.03;;
43817;SDS011;29868;47.360;18.984;2022-08-21T15:33:36;6.00;;;3.17;;
43817;SDS011;29868;47.360;18.984;2022-08-21T15:36:02;3.40;;;2.70;;
43817;SDS011;29868;47.360;18.984;2022-08-21T15:38:27;3.78;;;3.10;;
43817;SDS011;29868;47.360;18.984;2022-08-21T15:40:53;4.93;;;2.83;;
43817;SDS011;29868;47.360;18.984;2022-08-21T15:46:00;3.85;;;2.90;;
43817;SDS011;29868;47.360;18.984;2022-08-21T15:48:26;3.75;;;2.83;;
43817;SDS011;29868;47.360;18.984;2022-08-21T15:50:52;3.70;;;2.70;;
43817;SDS011;29868;47.360;18.984;2022-08-21T15:53:18;3.03;;;2.47;;
43817;SDS011;29868;47.360;18.984;2022-08-21T15:55:43;4.10;;;2.95;;
43817;SDS011;29868;47.360;18.984;2022-08-21T15:58:12;4.50;;;2.88;;
43817;SDS011;29868;47.360;18.984;2022-08-21T16:00:40;4.57;;;2.83;;
43817;SDS011;29868;47.360;18.984;2022-08-21T16:03:08;4.25;;;2.90;;
43817;SDS011;29868;47.360;18.984;2022-08-21T16:05:36;6.65;;;3.00;;
43817;SDS011;29868;47.360;18.984;2022-08-21T16:08:02;3.58;;;2.70;;
43817;SDS011;29868;47.360;18.984;2022-08-21T16:10:27;4.50;;;2.90;;
43817;SDS011;29868;47.360;18.984;2022-08-21T16:12:55;3.75;;;2.30;;
43817;SDS011;29868;47.360;18.984;2022-08-21T16:15:26;4.93;;;2.72;;